sensor_id;sensor_type;location;lat;lon;timestamp;pressure;altitude;pressure_sealevel;temperature;humidity
62697;BME280;48761;42.680;23.312;2023-08-01T00:00:03;94496.53;;;24.54;51.46
62697;BME280;48761;42.680;23.312;2023-08-01T00:02:29;94497.38;;;24.54;51.68
62697;BME280;48761;42.680;23.312;2023-08-01T00:04:55;94517.41;;;24.46;51.88
62697;BME280;48761;42.680;23.312;2023-08-01T00:07:21;94511.91;;;24.33;52.05
62697;BME280;48761;42.680;23.312;2023-08-01T00:09:47;94518.19;;;24.40;51.97
62697;BME280;48761;42.680;23.312;2023-08-01T00:12:14;94511.41;;;24.22;52.26
62697;BME280;48761;42.680;23.312;2023-08-01T00:14:40;94495.47;;;24.05;52.60
62697;BME280;48761;42.680;23.312;2023-08-01T00:17:06;94507.94;;;24.28;52.38
62697;BME280;48761;42.680;23.312;2023-08-01T00:19:32;94500.97;;;24.19;52.55
62697;BME280;48761;42.680;23.312;2023-08-01T00:21:58;94507.72;;;24.30;52.12
62697;BME280;48761;42.680;23.312;2023-08-01T00:24:23;94499.78;;;24.28;52.29
62697;BME280;48761;42.680;23.312;2023-08-01T00:26:49;94496.34;;;24.19;52.14
62697;BME280;48761;42.680;23.312;2023-08-01T00:29:15;94464.16;;;24.10;52.19
62697;BME280;48761;42.680;23.312;2023-08-01T00:31:41;94488.03;;;24.21;52.19
62697;BME280;48761;42.680;23.312;2023-08-01T00:34:07;94499.53;;;23.81;53.19
62697;BME280;48761;42.680;23.312;2023-08-01T00:36:33;94490.53;;;23.80;53.10
62697;BME280;48761;42.680;23.312;2023-08-01T00:38:59;94484.53;;;23.92;52.62
62697;BME280;48761;42.680;23.312;2023-08-01T00:41:25;94504.16;;;24.29;52.21
62697;BME280;48761;42.680;23.312;2023-08-01T00:43:51;94498.03;;;24.14;52.42
62697;BME280;48761;42.680;23.312;2023-08-01T00:46:17;94491.34;;;24.16;51.87
62697;BME280;48761;42.680;23.312;2023-08-01T00:48:43;94505.09;;;24.15;52.28
62697;BME280;48761;42.680;23.312;2023-08-01T00:51:09;94493.25;;;24.23;51.94
62697;BME280;48761;42.680;23.312;2023-08-01T00:53:35;94493.75;;;24.33;51.76
62697;BME280;48761;42.680;23.312;2023-08-01T00:56:02;94474.56;;;23.99;52.33
62697;BME280;48761;42.680;23.312;2023-08-01T00:58:28;94489.19;;;24.05;52.08
62697;BME280;48761;42.680;23.312;2023-08-01T01:00:54;94482.88;;;23.91;52.34
62697;BME280;48761;42.680;23.312;2023-08-01T01:03:20;94491.50;;;24.01;52.20
62697;BME280;48761;42.680;23.312;2023-08-01T01:05:56;94491.78;;;24.20;51.10
62697;BME280;48761;42.680;23.312;2023-08-01T01:08:22;94489.19;;;23.98;51.80
62697;BME280;48761;42.680;23.312;2023-08-01T01:10:48;94481.91;;;24.05;51.56
62697;BME280;48761;42.680;23.312;2023-08-01T01:13:14;94487.84;;;23.87;52.26
62697;BME280;48761;42.680;23.312;2023-08-01T01:15:40;94484.63;;;24.12;51.56
62697;BME280;48761;42.680;23.312;2023-08-01T01:18:06;94484.00;;;24.10;51.42
62697;BME280;48761;42.680;23.312;2023-08-01T01:20:36;94476.31;;;24.14;51.32
62697;BME280;48761;42.680;23.312;2023-08-01T01:23:04;94458.47;;;23.55;52.57
62697;BME280;48761;42.680;23.312;2023-08-01T01:25:32;94460.72;;;23.87;51.51
62697;BME280;48761;42.680;23.312;2023-08-01T01:27:59;94456.41;;;24.00;51.10
62697;BME280;48761;42.680;23.312;2023-08-01T01:30:26;94460.91;;;23.79;51.76
62697;BME280;48761;42.680;23.312;2023-08-01T01:32:53;94472.06;;;24.04;51.26
62697;BME280;48761;42.680;23.312;2023-08-01T01:35:19;94474.34;;;23.58;51.96
62697;BME280;48761;42.680;23.312;2023-08-01T01:37:45;94462.81;;;23.85;51.53
62697;BME280;48761;42.680;23.312;2023-08-01T01:40:11;94457.94;;;23.45;52.19
62697;BME280;48761;42.680;23.312;2023-08-01T01:42:37;94456.06;;;23.74;52.03
62697;BME280;48761;42.680;23.312;2023-08-01T01:45:03;94460.34;;;23.97;51.32
62697;BME280;48761;42.680;23.312;2023-08-01T01:47:29;94458.50;;;24.04;50.85
62697;BME280;48761;42.680;23.312;2023-08-01T01:49:55;94464.06;;;23.25;52.76
62697;BME280;48761;42.680;23.312;2023-08-01T01:52:21;94475.06;;;23.74;52.01
62697;BME280;48761;42.680;23.312;2023-08-01T01:54:47;94470.31;;;23.83;51.62
62697;BME280;48761;42.680;23.312;2023-08-01T01:57:13;94452.38;;;23.24;52.11
62697;BME280;48761;42.680;23.312;2023-08-01T01:59:39;94483.50;;;23.06;52.97
62697;BME280;48761;42.680;23.312;2023-08-01T02:02:05;94480.84;;;23.13;52.77
62697;BME280;48761;42.680;23.312;2023-08-01T02:04:31;94477.47;;;23.04;53.26
62697;BME280;48761;42.680;23.312;2023-08-01T02:06:57;94451.63;;;23.09;52.58
62697;BME280;48761;42.680;23.312;2023-08-01T02:09:24;94472.94;;;23.40;52.19
62697;BME280;48761;42.680;23.312;2023-08-01T02:11:50;94471.47;;;23.67;51.63
62697;BME280;48761;42.680;23.312;2023-08-01T02:14:16;94469.38;;;23.69;51.27
62697;BME280;48761;42.680;23.312;2023-08-01T02:16:42;94450.41;;;23.69;51.04
62697;BME280;48761;42.680;23.312;2023-08-01T02:19:07;94474.09;;;23.89;50.70
62697;BME280;48761;42.680;23.312;2023-08-01T02:21:33;94475.63;;;23.62;51.10
62697;BME280;48761;42.680;23.312;2023-08-01T02:23:59;94476.41;;;23.56;51.63
62697;BME280;48761;42.680;23.312;2023-08-01T02:26:25;94477.13;;;22.70;53.42
62697;BME280;48761;42.680;23.312;2023-08-01T02:28:51;94469.38;;;22.67;53.42
62697;BME280;48761;42.680;23.312;2023-08-01T02:31:17;94467.63;;;23.03;52.71
62697;BME280;48761;42.680;23.312;2023-08-01T02:33:43;94467.56;;;23.47;51.67
62697;BME280;48761;42.680;23.312;2023-08-01T02:36:09;94439.53;;;23.33;51.49
62697;BME280;48761;42.680;23.312;2023-08-01T02:38:35;94465.00;;;23.68;50.88
62697;BME280;48761;42.680;23.312;2023-08-01T02:41:00;94469.81;;;23.66;51.19
62697;BME280;48761;42.680;23.312;2023-08-01T02:43:26;94463.00;;;23.48;51.11
62697;BME280;48761;42.680;23.312;2023-08-01T02:45:52;94464.28;;;23.52;51.08
62697;BME280;48761;42.680;23.312;2023-08-01T02:48:18;94461.84;;;23.64;50.86
62697;BME280;48761;42.680;23.312;2023-08-01T02:50:45;94466.66;;;23.69;50.49
62697;BME280;48761;42.680;23.312;2023-08-01T02:53:11;94440.81;;;23.37;50.69
62697;BME280;48761;42.680;23.312;2023-08-01T02:55:37;94458.38;;;22.91;51.97
62697;BME280;48761;42.680;23.312;2023-08-01T02:58:03;94468.06;;;23.29;51.30
62697;BME280;48761;42.680;23.312;2023-08-01T03:00:28;94469.06;;;23.50;50.75
62697;BME280;48761;42.680;23.312;2023-08-01T03:02:54;94470.59;;;23.59;50.54
62697;BME280;48761;42.680;23.312;2023-08-01T03:05:21;94454.41;;;23.15;51.20
62697;BME280;48761;42.680;23.312;2023-08-01T03:07:47;94478.06;;;23.28;51.36
62697;BME280;48761;42.680;23.312;2023-08-01T03:10:13;94464.28;;;23.01;51.37
62697;BME280;48761;42.680;23.312;2023-08-01T03:12:38;94462.25;;;22.81;52.00
62697;BME280;48761;42.680;23.312;2023-08-01T03:15:05;94465.91;;;22.95;52.01
62697;BME280;48761;42.680;23.312;2023-08-01T03:17:31;94455.16;;;23.02;51.70
62697;BME280;48761;42.680;23.312;2023-08-01T03:19:57;94467.16;;;23.22;51.28
62697;BME280;48761;42.680;23.312;2023-08-01T03:22:23;94467.13;;;23.15;51.57
62697;BME280;48761;42.680;23.312;2023-08-01T03:24:48;94464.81;;;23.12;51.34
62697;BME280;48761;42.680;23.312;2023-08-01T03:27:14;94459.09;;;23.00;51.69
62697;BME280;48761;42.680;23.312;2023-08-01T03:29:40;94458.16;;;23.14;51.19
62697;BME280;48761;42.680;23.312;2023-08-01T03:32:06;94460.53;;;23.24;51.35
62697;BME280;48761;42.680;23.312;2023-08-01T03:34:32;94474.91;;;23.82;50.11
62697;BME280;48761;42.680;23.312;2023-08-01T03:36:58;94470.16;;;23.56;50.43
62697;BME280;48761;42.680;23.312;2023-08-01T03:39:24;94467.56;;;23.18;51.05
62697;BME280;48761;42.680;23.312;2023-08-01T03:41:50;94473.72;;;23.34;50.61
62697;BME280;48761;42.680;23.312;2023-08-01T03:44:16;94479.34;;;23.61;50.40
62697;BME280;48761;42.680;23.312;2023-08-01T03:46:43;94482.06;;;23.61;50.52
62697;BME280;48761;42.680;23.312;2023-08-01T03:49:08;94490.88;;;23.42;50.99
62697;BME280;48761;42.680;23.312;2023-08-01T03:51:34;94485.78;;;22.06;56.07
62697;BME280;48761;42.680;23.312;2023-08-01T03:54:00;94479.84;;;22.70;55.45
62697;BME280;48761;42.680;23.312;2023-08-01T03:56:26;94486.94;;;23.15;54.44
62697;BME280;48761;42.680;23.312;2023-08-01T03:58:52;94484.50;;;22.77;54.89
62697;BME280;48761;42.680;23.312;2023-08-01T04:01:18;94491.63;;;22.78;55.31
62697;BME280;48761;42.680;23.312;2023-08-01T04:03:44;94494.16;;;22.86;54.81
62697;BME280;48761;42.680;23.312;2023-08-01T04:06:10;94492.66;;;22.61;55.55
62697;BME280;48761;42.680;23.312;2023-08-01T04:08:36;94504.25;;;22.18;57.27
62697;BME280;48761;42.680;23.312;2023-08-01T04:11:02;94497.88;;;23.29;55.09
62697;BME280;48761;42.680;23.312;2023-08-01T04:13:28;94468.19;;;22.70;55.49
62697;BME280;48761;42.680;23.312;2023-08-01T04:15:55;94494.56;;;22.83;55.46
62697;BME280;48761;42.680;23.312;2023-08-01T04:18:20;94459.66;;;22.95;55.43
62697;BME280;48761;42.680;23.312;2023-08-01T04:20:46;94488.22;;;23.20;54.77
62697;BME280;48761;42.680;23.312;2023-08-01T04:23:12;94491.44;;;22.64;55.84
62697;BME280;48761;42.680;23.312;2023-08-01T04:25:40;94508.63;;;22.71;55.59
62697;BME280;48761;42.680;23.312;2023-08-01T04:28:07;94513.19;;;24.37;51.46
62697;BME280;48761;42.680;23.312;2023-08-01T04:30:33;94488.06;;;25.18;49.22
62697;BME280;48761;42.680;23.312;2023-08-01T04:32:59;94503.94;;;25.69;48.04
62697;BME280;48761;42.680;23.312;2023-08-01T04:35:25;94494.75;;;25.56;47.87
62697;BME280;48761;42.680;23.312;2023-08-01T04:37:50;94500.63;;;25.19;48.57
62697;BME280;48761;42.680;23.312;2023-08-01T04:40:16;94505.00;;;25.88;47.27
62697;BME280;48761;42.680;23.312;2023-08-01T04:42:42;94487.25;;;26.45;45.75
62697;BME280;48761;42.680;23.312;2023-08-01T04:45:08;94511.38;;;26.81;45.36
62697;BME280;48761;42.680;23.312;2023-08-01T04:47:35;94497.84;;;25.94;46.65
62697;BME280;48761;42.680;23.312;2023-08-01T04:50:01;94492.88;;;26.50;45.67
62697;BME280;48761;42.680;23.312;2023-08-01T04:52:26;94498.19;;;26.78;44.91
62697;BME280;48761;42.680;23.312;2023-08-01T04:54:52;94497.59;;;26.69;44.43
62697;BME280;48761;42.680;23.312;2023-08-01T04:57:18;94496.53;;;27.09;43.66
62697;BME280;48761;42.680;23.312;2023-08-01T04:59:44;94498.66;;;27.58;42.59
62697;BME280;48761;42.680;23.312;2023-08-01T05:02:10;94492.84;;;28.18;41.50
62697;BME280;48761;42.680;23.312;2023-08-01T05:04:37;94501.81;;;28.44;41.27
62697;BME280;48761;42.680;23.312;2023-08-01T05:07:04;94491.44;;;28.65;40.75
62697;BME280;48761;42.680;23.312;2023-08-01T05:09:30;94495.81;;;28.85;39.76
62697;BME280;48761;42.680;23.312;2023-08-01T05:11:55;94475.28;;;28.94;39.70
62697;BME280;48761;42.680;23.312;2023-08-01T05:14:21;94495.59;;;28.86;38.96
62697;BME280;48761;42.680;23.312;2023-08-01T05:16:47;94505.13;;;28.65;39.25
62697;BME280;48761;42.680;23.312;2023-08-01T05:19:13;94500.31;;;28.48;39.35
62697;BME280;48761;42.680;23.312;2023-08-01T05:21:39;94507.47;;;28.92;39.33
62697;BME280;48761;42.680;23.312;2023-08-01T05:24:05;94502.09;;;28.36;40.04
62697;BME280;48761;42.680;23.312;2023-08-01T05:26:31;94500.50;;;28.96;38.66
62697;BME280;48761;42.680;23.312;2023-08-01T05:28:57;94496.97;;;28.46;39.22
62697;BME280;48761;42.680;23.312;2023-08-01T05:31:23;94498.44;;;28.42;39.43
62697;BME280;48761;42.680;23.312;2023-08-01T05:33:48;94509.47;;;28.54;39.44
62697;BME280;48761;42.680;23.312;2023-08-01T05:36:14;94490.72;;;28.39;39.61
62697;BME280;48761;42.680;23.312;2023-08-01T05:38:40;94491.78;;;28.38;39.83
62697;BME280;48761;42.680;23.312;2023-08-01T05:41:06;94502.38;;;29.27;38.29
62697;BME280;48761;42.680;23.312;2023-08-01T05:43:32;94500.38;;;29.34;38.37
62697;BME280;48761;42.680;23.312;2023-08-01T05:45:58;94505.56;;;28.62;39.56
62697;BME280;48761;42.680;23.312;2023-08-01T05:48:24;94493.38;;;27.89;40.82
62697;BME280;48761;42.680;23.312;2023-08-01T05:50:50;94505.00;;;28.91;39.19
62697;BME280;48761;42.680;23.312;2023-08-01T05:53:15;94505.84;;;29.34;37.62
62697;BME280;48761;42.680;23.312;2023-08-01T05:55:41;94500.63;;;29.69;37.96
62697;BME280;48761;42.680;23.312;2023-08-01T05:58:07;94485.91;;;29.94;37.19
62697;BME280;48761;42.680;23.312;2023-08-01T06:00:33;94495.63;;;29.65;37.91
62697;BME280;48761;42.680;23.312;2023-08-01T06:02:59;94493.59;;;29.37;38.19
62697;BME280;48761;42.680;23.312;2023-08-01T06:05:25;94490.84;;;29.25;38.09
62697;BME280;48761;42.680;23.312;2023-08-01T06:07:51;94485.25;;;28.39;38.64
62697;BME280;48761;42.680;23.312;2023-08-01T06:10:17;94496.38;;;29.97;36.49
62697;BME280;48761;42.680;23.312;2023-08-01T06:12:42;94489.91;;;30.27;35.67
62697;BME280;48761;42.680;23.312;2023-08-01T06:15:09;94496.84;;;31.01;34.30
62697;BME280;48761;42.680;23.312;2023-08-01T06:17:35;94490.28;;;30.31;35.46
62697;BME280;48761;42.680;23.312;2023-08-01T06:20:00;94493.94;;;30.78;35.04
62697;BME280;48761;42.680;23.312;2023-08-01T06:22:26;94493.81;;;29.23;37.06
62697;BME280;48761;42.680;23.312;2023-08-01T06:24:52;94492.22;;;28.35;37.60
62697;BME280;48761;42.680;23.312;2023-08-01T06:27:18;94488.97;;;30.09;35.30
62697;BME280;48761;42.680;23.312;2023-08-01T06:29:44;94491.00;;;30.38;34.61
62697;BME280;48761;42.680;23.312;2023-08-01T06:32:11;94489.59;;;30.65;34.48
62697;BME280;48761;42.680;23.312;2023-08-01T06:34:37;94470.88;;;30.91;34.14
62697;BME280;48761;42.680;23.312;2023-08-01T06:37:03;94493.66;;;31.38;33.36
62697;BME280;48761;42.680;23.312;2023-08-01T06:39:29;94476.13;;;31.74;32.67
62697;BME280;48761;42.680;23.312;2023-08-01T06:41:55;94473.22;;;27.39;39.37
62697;BME280;48761;42.680;23.312;2023-08-01T06:44:21;94473.50;;;26.66;41.06
62697;BME280;48761;42.680;23.312;2023-08-01T06:46:47;94481.19;;;26.29;41.87
62697;BME280;48761;42.680;23.312;2023-08-01T06:49:12;94478.22;;;25.85;42.41
62697;BME280;48761;42.680;23.312;2023-08-01T06:51:38;94478.00;;;26.39;40.69
62697;BME280;48761;42.680;23.312;2023-08-01T06:54:04;94476.38;;;28.43;37.89
62697;BME280;48761;42.680;23.312;2023-08-01T06:56:30;94475.75;;;30.06;35.39
62697;BME280;48761;42.680;23.312;2023-08-01T06:58:56;94472.09;;;29.64;34.83
62697;BME280;48761;42.680;23.312;2023-08-01T07:01:22;94487.44;;;30.02;34.85
62697;BME280;48761;42.680;23.312;2023-08-01T07:03:48;94475.59;;;31.08;33.39
62697;BME280;48761;42.680;23.312;2023-08-01T07:06:14;94480.59;;;30.82;33.85
62697;BME280;48761;42.680;23.312;2023-08-01T07:08:39;94478.28;;;29.96;35.43
62697;BME280;48761;42.680;23.312;2023-08-01T07:11:05;94471.06;;;29.23;36.71
62697;BME280;48761;42.680;23.312;2023-08-01T07:13:31;94466.25;;;29.49;36.54
62697;BME280;48761;42.680;23.312;2023-08-01T07:15:57;94461.38;;;28.96;37.45
62697;BME280;48761;42.680;23.312;2023-08-01T07:18:23;94447.56;;;28.60;38.61
62697;BME280;48761;42.680;23.312;2023-08-01T07:21:01;94461.34;;;29.51;36.58
62697;BME280;48761;42.680;23.312;2023-08-01T07:23:27;94464.91;;;30.36;35.62
62697;BME280;48761;42.680;23.312;2023-08-01T07:25:53;94458.72;;;30.87;34.10
62697;BME280;48761;42.680;23.312;2023-08-01T07:28:19;94445.78;;;29.39;36.07
62697;BME280;48761;42.680;23.312;2023-08-01T07:30:45;94459.63;;;29.02;37.00
62697;BME280;48761;42.680;23.312;2023-08-01T07:33:11;94458.94;;;30.68;35.36
62697;BME280;48761;42.680;23.312;2023-08-01T07:35:37;94451.25;;;31.63;34.00
62697;BME280;48761;42.680;23.312;2023-08-01T07:38:03;94451.13;;;31.93;33.12
62697;BME280;48761;42.680;23.312;2023-08-01T07:40:28;94454.56;;;31.31;33.77
62697;BME280;48761;42.680;23.312;2023-08-01T07:42:54;94455.16;;;29.19;37.14
62697;BME280;48761;42.680;23.312;2023-08-01T07:45:20;94455.53;;;29.47;36.73
62697;BME280;48761;42.680;23.312;2023-08-01T07:47:46;94459.03;;;31.03;34.32
62697;BME280;48761;42.680;23.312;2023-08-01T07:50:12;94459.72;;;30.81;34.91
62697;BME280;48761;42.680;23.312;2023-08-01T07:52:38;94452.97;;;30.42;35.16
62697;BME280;48761;42.680;23.312;2023-08-01T07:55:04;94461.59;;;30.09;36.06
62697;BME280;48761;42.680;23.312;2023-08-01T07:57:30;94456.72;;;30.82;35.35
62697;BME280;48761;42.680;23.312;2023-08-01T07:59:56;94448.97;;;30.08;35.48
62697;BME280;48761;42.680;23.312;2023-08-01T08:02:22;94452.72;;;30.73;35.35
62697;BME280;48761;42.680;23.312;2023-08-01T08:04:48;94436.44;;;30.66;35.37
62697;BME280;48761;42.680;23.312;2023-08-01T08:07:14;94451.50;;;31.44;34.12
62697;BME280;48761;42.680;23.312;2023-08-01T08:09:40;94448.44;;;30.24;35.80
62697;BME280;48761;42.680;23.312;2023-08-01T08:12:06;94437.53;;;31.63;34.59
62697;BME280;48761;42.680;23.312;2023-08-01T08:14:32;94439.34;;;29.94;36.42
62697;BME280;48761;42.680;23.312;2023-08-01T08:16:58;94446.25;;;28.93;37.73
62697;BME280;48761;42.680;23.312;2023-08-01T08:19:23;94427.47;;;29.88;36.85
62697;BME280;48761;42.680;23.312;2023-08-01T08:21:49;94426.81;;;30.81;35.58
62697;BME280;48761;42.680;23.312;2023-08-01T08:24:15;94421.88;;;31.64;33.79
62697;BME280;48761;42.680;23.312;2023-08-01T08:26:41;94431.03;;;31.70;33.65
62697;BME280;48761;42.680;23.312;2023-08-01T08:29:07;94428.38;;;31.75;34.00
62697;BME280;48761;42.680;23.312;2023-08-01T08:31:33;94422.91;;;30.76;35.25
62697;BME280;48761;42.680;23.312;2023-08-01T08:33:59;94418.81;;;30.20;36.10
62697;BME280;48761;42.680;23.312;2023-08-01T08:36:25;94410.91;;;29.47;37.41
62697;BME280;48761;42.680;23.312;2023-08-01T08:38:51;94384.22;;;29.06;38.41
62697;BME280;48761;42.680;23.312;2023-08-01T08:41:21;94410.03;;;28.67;38.61
62697;BME280;48761;42.680;23.312;2023-08-01T08:43:48;94401.97;;;28.11;39.83
62697;BME280;48761;42.680;23.312;2023-08-01T08:46:17;94408.06;;;29.17;37.86
62697;BME280;48761;42.680;23.312;2023-08-01T08:48:45;94404.41;;;29.05;38.17
62697;BME280;48761;42.680;23.312;2023-08-01T08:51:11;94407.13;;;29.48;37.62
62697;BME280;48761;42.680;23.312;2023-08-01T08:53:40;94407.84;;;28.88;38.20
62697;BME280;48761;42.680;23.312;2023-08-01T08:56:08;94403.69;;;28.97;38.22
62697;BME280;48761;42.680;23.312;2023-08-01T08:58:36;94397.00;;;28.69;38.48
62697;BME280;48761;42.680;23.312;2023-08-01T09:01:02;94393.84;;;28.84;37.68
62697;BME280;48761;42.680;23.312;2023-08-01T09:03:29;94389.84;;;29.35;37.19
62697;BME280;48761;42.680;23.312;2023-08-01T09:08:29;94387.44;;;28.60;38.17
62697;BME280;48761;42.680;23.312;2023-08-01T09:10:58;94380.66;;;29.65;37.03
62697;BME280;48761;42.680;23.312;2023-08-01T09:13:24;94379.31;;;28.84;37.25
62697;BME280;48761;42.680;23.312;2023-08-01T09:15:50;94372.78;;;28.85;37.71
62697;BME280;48761;42.680;23.312;2023-08-01T09:18:17;94373.44;;;28.37;37.71
62697;BME280;48761;42.680;23.312;2023-08-01T09:20:46;94369.75;;;28.31;38.20
62697;BME280;48761;42.680;23.312;2023-08-01T09:23:12;94366.84;;;27.76;39.09
62697;BME280;48761;42.680;23.312;2023-08-01T09:25:38;94351.59;;;28.06;38.61
62697;BME280;48761;42.680;23.312;2023-08-01T09:28:20;94367.22;;;28.92;37.34
62697;BME280;48761;42.680;23.312;2023-08-01T09:30:54;94368.84;;;28.19;38.68
62697;BME280;48761;42.680;23.312;2023-08-01T09:33:20;94363.19;;;28.20;37.69
62697;BME280;48761;42.680;23.312;2023-08-01T09:35:46;94366.91;;;29.12;37.33
62697;BME280;48761;42.680;23.312;2023-08-01T09:38:13;94370.66;;;29.83;36.32
62697;BME280;48761;42.680;23.312;2023-08-01T09:40:39;94346.44;;;29.27;36.95
62697;BME280;48761;42.680;23.312;2023-08-01T09:43:05;94370.53;;;29.90;36.04
62697;BME280;48761;42.680;23.312;2023-08-01T09:45:31;94364.56;;;30.35;35.60
62697;BME280;48761;42.680;23.312;2023-08-01T09:47:57;94355.81;;;30.67;35.20
62697;BME280;48761;42.680;23.312;2023-08-01T09:50:23;94343.41;;;30.18;35.49
62697;BME280;48761;42.680;23.312;2023-08-01T09:52:49;94347.06;;;30.24;36.11
62697;BME280;48761;42.680;23.312;2023-08-01T09:55:15;94338.19;;;29.75;37.65
62697;BME280;48761;42.680;23.312;2023-08-01T09:57:42;94340.16;;;29.14;37.53
62697;BME280;48761;42.680;23.312;2023-08-01T10:00:13;94341.06;;;29.08;37.71
62697;BME280;48761;42.680;23.312;2023-08-01T10:02:42;94327.00;;;28.68;38.48
62697;BME280;48761;42.680;23.312;2023-08-01T10:05:09;94330.63;;;29.29;37.75
62697;BME280;48761;42.680;23.312;2023-08-01T10:07:38;94323.13;;;29.36;37.13
62697;BME280;48761;42.680;23.312;2023-08-01T10:10:07;94323.81;;;30.26;35.93
62697;BME280;48761;42.680;23.312;2023-08-01T10:12:33;94317.13;;;30.46;35.91
62697;BME280;48761;42.680;23.312;2023-08-01T10:15:00;94309.56;;;30.71;36.04
62697;BME280;48761;42.680;23.312;2023-08-01T10:17:27;94302.09;;;30.66;35.92
62697;BME280;48761;42.680;23.312;2023-08-01T10:19:53;94306.97;;;31.16;35.21
62697;BME280;48761;42.680;23.312;2023-08-01T10:22:21;94308.63;;;30.65;35.68
62697;BME280;48761;42.680;23.312;2023-08-01T10:24:50;94305.50;;;31.08;35.55
62697;BME280;48761;42.680;23.312;2023-08-01T10:27:20;94300.19;;;31.01;35.17
62697;BME280;48761;42.680;23.312;2023-08-01T10:29:58;94282.47;;;30.74;34.98
62697;BME280;48761;42.680;23.312;2023-08-01T10:32:33;94293.78;;;30.31;35.64
62697;BME280;48761;42.680;23.312;2023-08-01T10:35:00;94285.56;;;30.95;34.75
62697;BME280;48761;42.680;23.312;2023-08-01T10:37:26;94284.69;;;31.12;34.66
62697;BME280;48761;42.680;23.312;2023-08-01T10:40:01;94265.63;;;31.23;34.48
62697;BME280;48761;42.680;23.312;2023-08-01T10:42:40;94266.25;;;31.07;34.72
62697;BME280;48761;42.680;23.312;2023-08-01T10:45:07;94283.72;;;30.84;34.94
62697;BME280;48761;42.680;23.312;2023-08-01T10:47:33;94280.16;;;31.40;34.23
62697;BME280;48761;42.680;23.312;2023-08-01T10:49:59;94268.56;;;31.16;34.70
62697;BME280;48761;42.680;23.312;2023-08-01T10:52:26;94265.28;;;30.96;34.81
62697;BME280;48761;42.680;23.312;2023-08-01T10:55:00;94268.94;;;30.50;35.34
62697;BME280;48761;42.680;23.312;2023-08-01T10:57:30;94261.91;;;29.96;35.21
62697;BME280;48761;42.680;23.312;2023-08-01T10:59:57;94251.72;;;30.08;34.94
62697;BME280;48761;42.680;23.312;2023-08-01T11:02:26;94254.00;;;29.82;35.30
62697;BME280;48761;42.680;23.312;2023-08-01T11:07:22;94259.56;;;30.17;34.21
62697;BME280;48761;42.680;23.312;2023-08-01T11:09:47;94230.88;;;30.54;33.65
62697;BME280;48761;42.680;23.312;2023-08-01T11:12:13;94239.88;;;30.67;33.19
62697;BME280;48761;42.680;23.312;2023-08-01T11:14:40;94241.56;;;30.90;33.41
62697;BME280;48761;42.680;23.312;2023-08-01T11:17:06;94231.31;;;30.16;34.98
62697;BME280;48761;42.680;23.312;2023-08-01T11:19:32;94224.81;;;29.88;35.16
62697;BME280;48761;42.680;23.312;2023-08-01T11:21:59;94202.50;;;29.96;35.12
62697;BME280;48761;42.680;23.312;2023-08-01T11:24:33;94215.34;;;30.60;34.34
62697;BME280;48761;42.680;23.312;2023-08-01T11:26:59;94215.59;;;30.93;33.46
62697;BME280;48761;42.680;23.312;2023-08-01T11:29:25;94218.06;;;31.57;32.36
62697;BME280;48761;42.680;23.312;2023-08-01T11:31:59;94207.50;;;31.48;32.22
62697;BME280;48761;42.680;23.312;2023-08-01T11:34:25;94209.56;;;31.13;32.23
62697;BME280;48761;42.680;23.312;2023-08-01T11:36:52;94202.38;;;30.72;33.03
62697;BME280;48761;42.680;23.312;2023-08-01T11:39:18;94198.97;;;30.30;32.18
62697;BME280;48761;42.680;23.312;2023-08-01T11:41:45;94208.31;;;30.64;32.90
62697;BME280;48761;42.680;23.312;2023-08-01T11:44:11;94202.47;;;30.60;32.09
62697;BME280;48761;42.680;23.312;2023-08-01T11:46:38;94201.72;;;30.65;32.21
62697;BME280;48761;42.680;23.312;2023-08-01T11:49:08;94185.69;;;30.22;32.55
62697;BME280;48761;42.680;23.312;2023-08-01T11:51:43;94186.00;;;30.08;33.54
62697;BME280;48761;42.680;23.312;2023-08-01T11:54:10;94197.00;;;30.60;33.71
62697;BME280;48761;42.680;23.312;2023-08-01T11:56:36;94188.19;;;30.58;33.15
62697;BME280;48761;42.680;23.312;2023-08-01T11:59:13;94188.25;;;30.81;33.05
62697;BME280;48761;42.680;23.312;2023-08-01T12:01:41;94178.34;;;29.93;33.47
62697;BME280;48761;42.680;23.312;2023-08-01T12:04:08;94173.69;;;29.76;33.18
62697;BME280;48761;42.680;23.312;2023-08-01T12:06:34;94185.72;;;29.63;33.43
62697;BME280;48761;42.680;23.312;2023-08-01T12:09:08;94169.72;;;29.84;32.55
62697;BME280;48761;42.680;23.312;2023-08-01T12:11:35;94172.41;;;29.67;32.68
62697;BME280;48761;42.680;23.312;2023-08-01T12:14:14;94177.38;;;29.99;32.62
62697;BME280;48761;42.680;23.312;2023-08-01T12:16:41;94168.75;;;30.08;32.25
62697;BME280;48761;42.680;23.312;2023-08-01T12:19:09;94153.13;;;29.91;31.59
62697;BME280;48761;42.680;23.312;2023-08-01T12:21:35;94140.19;;;29.57;30.29
62697;BME280;48761;42.680;23.312;2023-08-01T12:24:02;94143.56;;;29.47;31.29
62697;BME280;48761;42.680;23.312;2023-08-01T12:26:27;94141.91;;;29.75;31.80
62697;BME280;48761;42.680;23.312;2023-08-01T12:28:54;94151.97;;;30.21;31.69
62697;BME280;48761;42.680;23.312;2023-08-01T12:31:21;94144.88;;;30.38;32.27
62697;BME280;48761;42.680;23.312;2023-08-01T12:33:48;94154.41;;;29.71;32.52
62697;BME280;48761;42.680;23.312;2023-08-01T12:36:14;94154.63;;;29.99;32.44
62697;BME280;48761;42.680;23.312;2023-08-01T12:38:40;94145.34;;;30.35;31.97
62697;BME280;48761;42.680;23.312;2023-08-01T12:41:07;94144.78;;;30.72;31.57
62697;BME280;48761;42.680;23.312;2023-08-01T12:43:33;94147.53;;;30.32;32.12
62697;BME280;48761;42.680;23.312;2023-08-01T12:45:58;94139.44;;;30.26;31.63
62697;BME280;48761;42.680;23.312;2023-08-01T12:48:28;94150.13;;;30.62;30.68
62697;BME280;48761;42.680;23.312;2023-08-01T12:50:54;94139.84;;;30.52;30.86